Time,TemperatureF,DewpointF,PressureIn,WindDirection,WindDirectionDegrees,WindSpeedMPH,WindSpeedGustMPH,Humidity,HourlyPrecipIn,Conditions,Clouds,dailyrainin,SolarRadiationWatts/m^2,SoftwareType,DateUTC
2013-02-21 00:00:00,29.6,16.6,30.09,ESE,123,7.0,7.0,58,0.00,,BKN110,0.00,0.00,VWS V14.01,2013-02-21 06:00:00,
2013-02-21 00:03:00,30.4,13.5,30.09,ESE,113,0.0,9.0,49,0.00,,OVC032,0.00,0.00,VWS V14.01,2013-02-21 06:03:00,
2013-02-21 00:05:00,29.4,17.2,30.09,ESE,118,0.0,6.0,60,0.00,,BKN110,0.00,0.00,VWS V14.01,2013-02-21 06:05:00,
2013-02-21 00:08:00,30.4,14.4,30.09,SSW,192,3.0,4.0,51,0.00,,OVC032,0.00,0.00,VWS V14.01,2013-02-21 06:08:00,
2013-02-21 00:10:00,29.2,17.4,30.09,East,86,7.0,8.0,61,0.00,,BKN110,0.00,0.00,VWS V14.01,2013-02-21 06:10:00,
2013-02-21 00:13:00,30.3,15.2,30.09,SE,140,4.0,5.0,53,0.00,,OVC032,0.00,0.00,VWS V14.01,2013-02-21 06:13:00,
2013-02-21 00:15:00,29.0,17.6,30.08,East,98,2.0,11.0,62,0.00,,BKN110,0.00,0.00,VWS V14.01,2013-02-21 06:15:00,
2013-02-21 00:18:00,30.1,15.9,30.09,East,91,0.0,0.0,55,0.00,,OVC032,0.00,0.00,VWS V14.01,2013-02-21 06:18:00,
2013-02-21 00:20:00,28.8,17.8,30.08,South,177,0.0,8.0,63,0.00,,BKN110,0.00,0.00,VWS V14.01,2013-02-21 06:20:00,
2013-02-21 00:23:00,30.0,15.8,30.09,ESE,113,4.0,5.0,55,0.00,,OVC032,0.00,0.00,VWS V14.01,2013-02-21 06:23:00,
2013-02-21 00:25:00,28.7,18.1,30.08,ESE,123,2.0,7.0,64,0.00,,BKN110,0.00,0.00,VWS V14.01,2013-02-21 06:25:00,
2013-02-21 00:28:00,29.9,15.3,30.09,South,169,0.0,0.0,54,0.00,,OVC032,0.00,0.00,VWS V14.01,2013-02-21 06:28:00,
2013-02-21 00:30:00,28.5,18.2,30.08,East,96,0.0,6.0,65,0.00,,BKN110,0.00,0.00,VWS V14.01,2013-02-21 06:30:00,
2013-02-21 00:33:00,30.0,15.0,30.10,ESE,113,0.0,9.0,53,0.00,,OVC032,0.00,0.00,VWS V14.01,2013-02-21 06:33:00,
2013-02-21 00:35:00,28.5,18.6,30.08,SE,132,2.0,7.0,66,0.00,,BKN110,0.00,0.00,VWS V14.01,2013-02-21 06:35:00,
2013-02-21 00:38:00,30.0,14.1,30.10,ESE,118,1.0,4.0,51,0.00,,OVC032,0.00,0.00,VWS V14.01,2013-02-21 06:38:00,
2013-02-21 00:40:00,28.4,18.5,30.08,East,86,3.0,8.0,66,0.00,,BKN110,0.00,0.00,VWS V14.01,2013-02-21 06:40:00,
2013-02-21 00:43:00,30.1,14.6,30.10,SE,129,1.0,6.0,52,0.00,,OVC032,0.00,0.00,VWS V14.01,2013-02-21 06:43:00,
2013-02-21 00:45:00,28.3,18.4,30.07,SSW,201,0.0,8.0,66,0.00,,BKN110,0.00,0.00,VWS V14.01,2013-02-21 06:45:00,
2013-02-21 00:48:00,30.1,15.1,30.10,ESE,123,0.0,3.0,53,0.00,,OVC032,0.00,0.00,VWS V14.01,2013-02-21 06:48:00,
2013-02-21 00:50:00,28.2,19.0,30.07,ESE,123,0.0,9.0,68,0.00,,BKN110,0.00,0.00,VWS V14.01,2013-02-21 06:50:00,
2013-02-21 00:53:00,30.0,16.2,30.10,ESE,119,1.0,4.0,56,0.00,,OVC032,0.00,0.00,VWS V14.01,2013-02-21 06:53:00,
2013-02-21 00:55:00,28.1,19.3,30.07,East,97,0.0,1.0,69,0.00,,BKN110,0.00,0.00,VWS V14.01,2013-02-21 06:55:00,
2013-02-21 00:58:00,29.7,16.8,30.10,East,80,1.0,6.0,58,0.00,,OVC032,0.00,0.00,VWS V14.01,2013-02-21 06:58:00,
2013-02-21 01:00:00,28.0,19.2,30.06,ENE,73,0.0,8.0,69,0.00,,BKN110,0.00,0.00,VWS V14.01,2013-02-21 07:00:00,
2013-02-21 01:03:00,29.5,17.0,30.09,ESE,105,0.0,5.0,59,0.00,,OVC037,0.00,0.00,VWS V14.01,2013-02-21 07:03:00,
2013-02-21 01:05:00,27.9,19.4,30.06,ENE,65,0.0,8.0,70,0.00,,BKN110,0.00,0.00,VWS V14.01,2013-02-21 07:05:00,
2013-02-21 01:08:00,29.3,17.1,30.09,East,94,2.0,5.0,60,0.00,,OVC037,0.00,0.00,VWS V14.01,2013-02-21 07:08:00,
2013-02-21 01:10:00,27.9,19.4,30.06,SE,132,2.0,5.0,70,0.00,,BKN110,0.00,0.00,VWS V14.01,2013-02-21 07:10:00,
2013-02-21 01:13:00,29.1,17.7,30.09,ESE,102,3.0,11.0,62,0.00,,OVC037,0.00,0.00,VWS V14.01,2013-02-21 07:13:00,
2013-02-21 01:15:00,27.8,19.3,30.04,East,88,0.0,6.0,70,0.00,,BKN110,0.00,0.00,VWS V14.01,2013-02-21 07:15:00,
2013-02-21 01:18:00,28.9,17.9,30.08,ESE,111,0.0,8.0,63,0.00,,OVC037,0.00,0.00,VWS V14.01,2013-02-21 07:18:00,
2013-02-21 01:20:00,27.8,19.0,30.04,East,89,9.0,9.0,69,0.00,,BKN110,0.00,0.00,VWS V14.01,2013-02-21 07:20:00,
2013-02-21 01:23:00,28.8,18.5,30.08,ESE,113,5.0,5.0,65,0.00,,OVC037,0.00,0.00,VWS V14.01,2013-02-21 07:23:00,
2013-02-21 01:25:00,27.7,19.2,30.04,SE,126,0.0,9.0,70,0.00,,BKN110,0.00,0.00,VWS V14.01,2013-02-21 07:25:00,
2013-02-21 01:28:00,28.6,18.3,30.08,ENE,69,3.0,6.0,65,0.00,,OVC037,0.00,0.00,VWS V14.01,2013-02-21 07:28:00,
2013-02-21 01:30:00,27.7,18.9,30.03,East,88,0.0,5.0,69,0.00,,BKN110,0.00,0.00,VWS V14.01,2013-02-21 07:30:00,
2013-02-21 01:33:00,28.5,18.6,30.08,ESE,117,1.0,7.0,66,0.00,,OVC037,0.00,0.00,VWS V14.01,2013-02-21 07:33:00,
2013-02-21 01:35:00,27.6,18.8,30.03,SSE,164,0.0,5.0,69,0.00,,BKN110,0.00,0.00,VWS V14.01,2013-02-21 07:35:00,
2013-02-21 01:39:00,28.4,18.5,30.08,SSE,167,0.0,5.0,66,0.00,,OVC037,0.00,0.00,VWS V14.01,2013-02-21 07:39:00,
2013-02-21 01:40:00,27.6,18.8,30.03,ESE,112,4.0,11.0,69,0.00,,BKN110,0.00,0.00,VWS V14.01,2013-02-21 07:40:00,
2013-02-21 01:44:00,28.3,18.4,30.08,SE,134,3.0,8.0,66,0.00,,OVC037,0.00,0.00,VWS V14.01,2013-02-21 07:44:00,
2013-02-21 01:45:00,27.6,18.4,30.02,SE,132,2.0,7.0,68,0.00,,BKN110,0.00,0.00,VWS V14.01,2013-02-21 07:45:00,
2013-02-21 01:49:00,28.2,18.7,30.07,East,91,2.0,9.0,67,0.00,,OVC037,0.00,0.00,VWS V14.01,2013-02-21 07:49:00,
2013-02-21 01:50:00,27.6,18.8,30.02,East,86,8.0,8.0,69,0.00,,BKN110,0.00,0.00,VWS V14.01,2013-02-21 07:50:00,
2013-02-21 01:54:00,28.1,18.9,30.07,ESE,123,0.0,0.0,68,0.00,,OVC037,0.00,0.00,VWS V14.01,2013-02-21 07:54:00,
2013-02-21 01:55:00,27.6,18.4,30.02,ESE,112,0.0,11.0,68,0.00,,BKN110,0.00,0.00,VWS V14.01,2013-02-21 07:55:00,
2013-02-21 01:59:00,28.1,18.9,30.07,North,355,1.0,8.0,68,0.00,,OVC037,0.00,0.00,VWS V14.01,2013-02-21 07:59:00,
2013-02-21 02:00:00,27.5,18.3,30.01,SE,144,1.0,10.0,68,0.00,,BKN110,0.00,0.00,VWS V14.01,2013-02-21 08:00:00,
2013-02-21 02:04:00,28.0,19.5,30.06,SSE,152,4.0,8.0,70,0.00,,OVC042,0.00,0.00,VWS V14.01,2013-02-21 08:04:00,
2013-02-21 02:05:00,27.5,18.3,30.01,SSE,153,0.0,12.0,68,0.00,,BKN110,0.00,0.00,VWS V14.01,2013-02-21 08:05:00,
2013-02-21 02:09:00,27.9,19.4,30.06,SE,140,0.0,5.0,70,0.00,,OVC042,0.00,0.00,VWS V14.01,2013-02-21 08:09:00,
2013-02-21 02:10:00,27.5,18.7,30.01,ESE,105,10.0,10.0,69,0.00,,BKN110,0.00,0.00,VWS V14.01,2013-02-21 08:10:00,
2013-02-21 02:14:00,27.8,19.3,30.06,East,84,0.0,6.0,70,0.00,,OVC042,0.00,0.00,VWS V14.01,2013-02-21 08:14:00,
2013-02-21 02:15:00,27.5,18.7,30.01,ESE,105,9.0,12.0,69,0.00,,BKN110,0.00,0.00,VWS V14.01,2013-02-21 08:15:00,
2013-02-21 02:19:00,27.8,19.3,30.04,South,174,4.0,5.0,70,0.00,,OVC042,0.00,0.00,VWS V14.01,2013-02-21 08:19:00,
2013-02-21 02:20:00,27.4,19.2,30.01,SSE,148,0.0,11.0,71,0.00,,BKN110,0.00,0.00,VWS V14.01,2013-02-21 08:20:00,
2013-02-21 02:24:00,27.7,18.9,30.04,ESE,119,1.0,9.0,69,0.00,,OVC042,0.00,0.00,VWS V14.01,2013-02-21 08:24:00,
2013-02-21 02:25:00,27.3,19.5,30.01,ESE,122,0.0,8.0,72,0.00,,BKN110,0.00,0.00,VWS V14.01,2013-02-21 08:25:00,
2013-02-21 02:29:00,27.7,18.9,30.04,SE,138,2.0,5.0,69,0.00,,OVC042,0.00,0.00,VWS V14.01,2013-02-21 08:29:00,
2013-02-21 02:30:00,27.2,20.0,30.02,SE,128,0.0,9.0,74,0.00,,BKN110,0.00,0.00,VWS V14.01,2013-02-21 08:30:00,
2013-02-21 02:34:00,27.7,19.2,30.03,SE,139,2.0,5.0,70,0.00,,OVC042,0.00,0.00,VWS V14.01,2013-02-21 08:34:00,
2013-02-21 02:35:00,27.2,20.0,30.02,SE,140,1.0,4.0,74,0.00,,BKN110,0.00,0.00,VWS V14.01,2013-02-21 08:35:00,
2013-02-21 02:39:00,27.6,18.8,30.03,ESE,102,0.0,11.0,69,0.00,,OVC042,0.00,0.00,VWS V14.01,2013-02-21 08:39:00,
2013-02-21 02:40:00,27.1,19.9,30.02,SE,129,0.0,10.0,74,0.00,,BKN110,0.00,0.00,VWS V14.01,2013-02-21 08:40:00,
2013-02-21 02:44:00,27.6,18.8,30.03,ESE,117,5.0,5.0,69,0.00,,OVC042,0.00,0.00,VWS V14.01,2013-02-21 08:44:00,
2013-02-21 02:45:00,27.0,20.1,29.96,East,88,1.0,13.0,75,0.00,,BKN110,0.00,0.00,VWS V14.01,2013-02-21 08:45:00,
2013-02-21 02:49:00,27.6,18.8,30.02,SW,215,0.0,4.0,69,0.00,,OVC042,0.00,0.00,VWS V14.01,2013-02-21 08:49:00,
2013-02-21 02:50:00,27.1,21.2,29.96,East,96,0.0,10.0,78,0.00,,BKN110,0.00,0.00,VWS V14.01,2013-02-21 08:50:00,
2013-02-21 02:54:00,27.6,18.4,30.02,ESE,104,5.0,11.0,68,0.00,,OVC042,0.00,0.00,VWS V14.01,2013-02-21 08:54:00,
2013-02-21 02:55:00,27.1,22.1,29.96,SSE,150,3.0,13.0,81,0.00,,BKN110,0.00,0.00,VWS V14.01,2013-02-21 08:55:00,
2013-02-21 02:59:00,27.5,18.3,30.02,SE,136,0.0,10.0,68,0.00,,OVC042,0.00,0.00,VWS V14.01,2013-02-21 08:59:00,
2013-02-21 03:00:00,26.9,21.9,29.96,ESE,102,8.0,8.0,81,0.00,,BKN110,0.00,0.00,VWS V14.01,2013-02-21 09:00:00,
2013-02-21 03:04:00,27.5,18.3,30.01,SE,143,3.0,12.0,68,0.00,,OVC042,0.00,0.00,VWS V14.01,2013-02-21 09:04:00,
2013-02-21 03:05:00,26.8,21.8,29.96,ESE,123,3.0,9.0,81,0.00,,BKN110,0.00,0.00,VWS V14.01,2013-02-21 09:05:00,
2013-02-21 03:09:00,27.5,18.7,30.01,NW,309,1.0,6.0,69,0.00,,OVC042,0.00,0.00,VWS V14.01,2013-02-21 09:09:00,
2013-02-21 03:10:00,26.6,21.3,29.96,East,92,2.0,9.0,80,0.00,,BKN110,0.00,0.00,VWS V14.01,2013-02-21 09:10:00,
2013-02-21 03:14:00,27.5,18.7,30.01,SSE,148,0.0,12.0,69,0.00,,OVC042,0.00,0.00,VWS V14.01,2013-02-21 09:14:00,
2013-02-21 03:15:00,26.5,21.5,29.95,ESE,121,0.0,11.0,81,0.00,,BKN110,0.00,0.00,VWS V14.01,2013-02-21 09:15:00,
2013-02-21 03:19:00,27.4,19.2,30.01,SSW,210,5.0,11.0,71,0.00,,OVC042,0.00,0.00,VWS V14.01,2013-02-21 09:19:00,
2013-02-21 03:20:00,26.5,21.5,29.95,South,179,0.0,8.0,81,0.00,,BKN110,0.00,0.00,VWS V14.01,2013-02-21 09:20:00,
2013-02-21 03:24:00,27.3,19.5,30.01,ESE,117,0.0,8.0,72,0.00,,OVC042,0.00,0.00,VWS V14.01,2013-02-21 09:24:00,
2013-02-21 03:25:00,26.4,21.4,29.95,SE,128,3.0,7.0,81,0.00,,BKN110,0.00,0.00,VWS V14.01,2013-02-21 09:25:00,
2013-02-21 03:29:00,27.2,19.4,30.01,ESE,123,0.0,6.0,72,0.00,,OVC042,0.00,0.00,VWS V14.01,2013-02-21 09:29:00,
2013-02-21 03:30:00,26.4,21.4,29.94,SSE,153,3.0,5.0,81,0.00,,BKN110,0.00,0.00,VWS V14.01,2013-02-21 09:30:00,
2013-02-21 03:34:00,27.2,19.7,30.02,SSE,158,0.0,3.0,73,0.00,,OVC042,0.00,0.00,VWS V14.01,2013-02-21 09:34:00,
2013-02-21 03:35:00,26.4,21.4,29.94,SSW,208,1.0,8.0,81,0.00,,BKN110,0.00,0.00,VWS V14.01,2013-02-21 09:35:00,
2013-02-21 03:39:00,27.1,19.9,30.02,ESE,102,5.0,8.0,74,0.00,,OVC042,0.00,0.00,VWS V14.01,2013-02-21 09:39:00,
2013-02-21 03:40:00,26.4,21.4,29.94,ESE,117,4.0,6.0,81,0.00,,BKN110,0.00,0.00,VWS V14.01,2013-02-21 09:40:00,
2013-02-21 03:44:00,27.0,20.5,30.02,ESE,109,7.0,13.0,76,0.00,,OVC042,0.00,0.00,VWS V14.01,2013-02-21 09:44:00,
2013-02-21 03:45:00,26.4,21.1,29.92,East,83,1.0,9.0,80,0.00,,BKN110,0.00,0.00,VWS V14.01,2013-02-21 09:45:00,
2013-02-21 03:49:00,27.1,21.2,29.96,East,101,8.0,10.0,78,0.00,,OVC042,0.00,0.00,VWS V14.01,2013-02-21 09:49:00,
2013-02-21 03:50:00,26.4,21.4,29.92,East,84,6.0,10.0,81,0.00,,BKN110,0.00,0.00,VWS V14.01,2013-02-21 09:50:00,
2013-02-21 03:54:00,27.1,21.8,29.96,ESE,110,0.0,13.0,80,0.00,,OVC042,0.00,0.00,VWS V14.01,2013-02-21 09:54:00,
2013-02-21 03:55:00,26.6,21.9,29.92,ESE,115,8.0,9.0,82,0.00,,BKN110,0.00,0.00,VWS V14.01,2013-02-21 09:55:00,
2013-02-21 03:59:00,27.0,22.0,29.96,NE,51,4.0,8.0,81,0.00,,OVC042,0.00,0.00,VWS V14.01,2013-02-21 09:59:00,
2013-02-21 04:00:00,26.6,21.9,29.92,SE,142,0.0,8.0,82,0.00,,BKN110,0.00,0.00,VWS V14.01,2013-02-21 10:00:00,
2013-02-21 04:04:00,26.8,21.8,29.96,ESE,123,3.0,8.0,81,0.00,,OVC042,0.00,0.00,VWS V14.01,2013-02-21 10:04:00,
2013-02-21 04:05:00,26.6,21.9,29.92,SE,146,0.0,9.0,82,0.00,,BKN110,0.00,0.00,VWS V14.01,2013-02-21 10:05:00,
2013-02-21 04:09:00,26.6,21.3,29.96,SSE,157,0.0,9.0,80,0.00,,OVC042,0.00,0.00,VWS V14.01,2013-02-21 10:09:00,
2013-02-21 04:10:00,26.7,22.2,29.92,SW,220,0.0,8.0,83,0.00,,BKN110,0.00,0.00,VWS V14.01,2013-02-21 10:10:00,
2013-02-21 04:15:00,26.6,21.3,29.96,SSE,150,4.0,8.0,80,0.00,,OVC042,0.00,0.00,VWS V14.01,2013-02-21 10:15:00,
2013-02-21 04:20:00,26.5,21.5,29.95,SE,146,0.0,8.0,81,0.00,,OVC042,0.00,0.00,VWS V14.01,2013-02-21 10:20:00,
2013-02-21 04:25:00,26.4,21.4,29.95,ESE,119,4.0,7.0,81,0.00,,OVC042,0.00,0.00,VWS V14.01,2013-02-21 10:25:00,
2013-02-21 04:30:00,26.4,21.4,29.94,SE,124,1.0,5.0,81,0.00,,OVC042,0.00,0.00,VWS V14.01,2013-02-21 10:30:00,
2013-02-21 04:35:00,26.4,21.4,29.94,SE,136,0.0,8.0,81,0.00,,OVC042,0.00,0.00,VWS V14.01,2013-02-21 10:35:00,
2013-02-21 04:40:00,26.4,21.4,29.94,SE,136,0.0,6.0,81,0.00,,OVC042,0.00,0.00,VWS V14.01,2013-02-21 10:40:00,
2013-02-21 04:45:00,26.4,21.1,29.92,ESE,106,0.0,9.0,80,0.00,,OVC042,0.00,0.00,VWS V14.01,2013-02-21 10:45:00,
2013-02-21 04:50:00,26.4,21.4,29.92,SE,129,0.0,10.0,81,0.00,,OVC042,0.00,0.00,VWS V14.01,2013-02-21 10:50:00,
2013-02-21 04:55:00,26.6,21.9,29.92,ESE,115,2.0,9.0,82,0.00,,OVC042,0.00,0.00,VWS V14.01,2013-02-21 10:55:00,
2013-02-21 05:00:00,26.6,21.9,29.92,SE,134,0.0,8.0,82,0.00,,OVC042,0.00,0.00,VWS V14.01,2013-02-21 11:00:00,
2013-02-21 05:05:00,26.7,22.0,29.92,South,190,2.0,9.0,82,0.00,,OVC042,0.00,0.00,VWS V14.01,2013-02-21 11:05:00,
2013-02-21 05:10:00,26.7,22.2,29.92,SW,220,1.0,8.0,83,0.00,,OVC042,0.00,0.00,VWS V14.01,2013-02-21 11:10:00,
2013-02-21 05:15:00,26.6,22.1,29.92,South,177,8.0,12.0,83,0.00,,OVC042,0.00,0.00,VWS V14.01,2013-02-21 11:15:00,
2013-02-21 05:20:00,26.6,21.9,29.92,SE,141,0.0,11.0,82,0.00,,OVC042,0.00,0.00,VWS V14.01,2013-02-21 11:20:00,
2013-02-21 05:25:00,26.6,22.1,29.92,East,101,8.0,8.0,83,0.00,,OVC042,0.00,0.00,VWS V14.01,2013-02-21 11:25:00,
2013-02-21 05:30:00,26.5,21.8,29.91,SE,137,2.0,12.0,82,0.00,,OVC042,0.00,0.00,VWS V14.01,2013-02-21 11:30:00,
2013-02-21 05:35:00,26.6,22.1,29.91,South,185,1.0,5.0,83,0.00,,OVC042,0.00,0.00,VWS V14.01,2013-02-21 11:35:00,
2013-02-21 05:40:00,26.5,22.0,29.91,SE,129,1.0,9.0,83,0.00,,OVC042,0.00,0.00,VWS V14.01,2013-02-21 11:40:00,
2013-02-21 05:45:00,26.5,22.0,29.90,SE,136,6.0,10.0,83,0.00,,OVC042,0.00,0.00,VWS V14.01,2013-02-21 11:45:00,
2013-02-21 05:50:00,26.5,22.0,29.90,South,169,0.0,17.0,83,0.00,,OVC060,0.00,0.00,VWS V14.01,2013-02-21 11:50:00,
2013-02-21 05:55:00,26.5,22.0,29.90,SE,134,5.0,11.0,83,0.00,,OVC060,0.00,0.00,VWS V14.01,2013-02-21 11:55:00,
2013-02-21 06:00:00,26.5,22.0,29.90,ESE,111,3.0,17.0,83,0.00,,OVC060,0.00,0.00,VWS V14.01,2013-02-21 12:00:00,
2013-02-21 06:05:00,26.5,22.0,29.90,East,84,0.0,11.0,83,0.00,,OVC050,0.00,0.00,VWS V14.01,2013-02-21 12:05:00,
2013-02-21 06:10:00,26.6,22.4,29.90,ESE,115,3.0,5.0,84,0.00,,OVC050,0.00,0.00,VWS V14.01,2013-02-21 12:10:00,
2013-02-21 06:15:00,26.7,22.8,29.91,SE,140,4.0,8.0,85,0.00,,OVC050,0.00,0.00,VWS V14.01,2013-02-21 12:15:00,
2013-02-21 06:20:00,26.9,23.3,29.91,SE,142,7.0,7.0,86,0.00,,,0.00,0.00,VWS V14.01,2013-02-21 12:20:00,
2013-02-21 06:25:00,27.2,23.9,29.91,ESE,103,7.0,17.0,87,0.00,,,0.00,0.00,VWS V14.01,2013-02-21 12:25:00,
2013-02-21 06:30:00,27.4,24.3,29.95,WSW,238,3.0,15.0,88,0.00,,,0.00,0.00,VWS V14.01,2013-02-21 12:30:00,
2013-02-21 06:35:00,27.4,24.3,29.95,East,101,7.0,12.0,88,0.00,,OVC042,0.00,0.00,VWS V14.01,2013-02-21 12:35:00,
2013-02-21 06:40:00,27.2,24.1,29.95,SE,134,4.0,11.0,88,0.00,,OVC042,0.00,0.00,VWS V14.01,2013-02-21 12:40:00,
2013-02-21 06:45:00,27.5,25.0,29.90,SE,141,0.0,7.0,90,0.02,,BKN110,0.02,5.00,VWS V14.01,2013-02-21 12:45:00,
2013-02-21 06:46:00,27.2,24.1,29.91,SE,126,4.0,10.0,88,0.00,,OVC042,0.00,0.00,VWS V14.01,2013-02-21 12:46:00,
2013-02-21 06:50:00,27.5,24.7,29.90,East,91,3.0,7.0,89,0.02,,BKN110,0.02,11.00,VWS V14.01,2013-02-21 12:50:00,
2013-02-21 06:51:00,27.1,24.0,29.91,ESE,105,0.0,12.0,88,0.00,,OVC042,0.00,0.00,VWS V14.01,2013-02-21 12:51:00,
2013-02-21 06:55:00,27.5,24.7,29.90,SE,135,1.0,7.0,89,0.03,,BKN110,0.03,12.00,VWS V14.01,2013-02-21 12:55:00,
2013-02-21 06:56:00,27.1,24.3,29.91,SE,145,0.0,7.0,89,0.00,,OVC042,0.00,0.00,VWS V14.01,2013-02-21 12:56:00,
2013-02-21 07:00:00,27.4,24.6,29.84,ESE,117,0.0,13.0,89,0.03,,BKN110,0.03,14.00,VWS V14.01,2013-02-21 13:00:00,
2013-02-21 07:01:00,27.0,24.2,29.85,SE,134,0.0,11.0,89,0.00,,OVC039,0.00,0.00,VWS V14.01,2013-02-21 13:01:00,
2013-02-21 07:05:00,27.5,25.0,29.84,SE,139,4.0,7.0,90,0.03,,BKN110,0.03,7.00,VWS V14.01,2013-02-21 13:05:00,
2013-02-21 07:06:00,27.1,24.6,29.85,SSE,148,4.0,8.0,90,0.00,,OVC039,0.00,0.00,VWS V14.01,2013-02-21 13:06:00,
2013-02-21 07:10:00,27.4,24.6,29.84,SW,215,4.0,9.0,89,0.03,,BKN110,0.03,7.00,VWS V14.01,2013-02-21 13:10:00,
2013-02-21 07:11:00,27.2,24.7,29.85,SSW,205,2.0,12.0,90,0.00,,OVC039,0.00,0.00,VWS V14.01,2013-02-21 13:11:00,
2013-02-21 07:15:00,27.3,24.5,29.83,SE,134,2.0,8.0,89,0.04,,BKN110,0.04,11.00,VWS V14.01,2013-02-21 13:15:00,
2013-02-21 07:16:00,27.2,24.4,29.86,SE,133,3.0,11.0,89,0.00,,OVC055,0.00,0.00,VWS V14.01,2013-02-21 13:16:00,
2013-02-21 07:20:00,27.1,24.3,29.83,ESE,119,5.0,11.0,89,0.04,,BKN110,0.04,19.00,VWS V14.01,2013-02-21 13:20:00,
2013-02-21 07:21:00,27.1,24.3,29.86,ESE,107,4.0,9.0,89,0.00,,OVC055,0.00,0.00,VWS V14.01,2013-02-21 13:21:00,
2013-02-21 07:25:00,27.0,24.2,29.83,SE,126,3.0,13.0,89,0.04,,BKN110,0.04,28.00,VWS V14.01,2013-02-21 13:25:00,
2013-02-21 07:26:00,27.5,25.0,29.86,East,79,6.0,9.0,90,0.01,,OVC055,0.01,0.00,VWS V14.01,2013-02-21 13:26:00,
2013-02-21 07:30:00,26.9,24.1,29.80,East,101,2.0,11.0,89,0.03,,BKN110,0.04,18.00,VWS V14.01,2013-02-21 13:30:00,
2013-02-21 07:31:00,27.6,25.1,29.86,ESE,123,5.0,9.0,90,0.01,,OVC055,0.01,9.00,VWS V14.01,2013-02-21 13:31:00,
2013-02-21 07:35:00,26.9,24.1,29.80,South,180,1.0,16.0,89,0.03,,BKN110,0.04,21.00,VWS V14.01,2013-02-21 13:35:00,
2013-02-21 07:36:00,27.6,25.1,29.86,NE,51,0.0,7.0,90,0.01,,OVC055,0.01,9.00,VWS V14.01,2013-02-21 13:36:00,
2013-02-21 07:40:00,26.9,24.1,29.80,ESE,106,3.0,10.0,89,0.03,,BKN110,0.04,21.00,VWS V14.01,2013-02-21 13:40:00,
2013-02-21 07:41:00,27.6,25.1,29.86,SE,134,3.0,5.0,90,0.02,,OVC055,0.02,7.00,VWS V14.01,2013-02-21 13:41:00,
2013-02-21 07:45:00,26.9,24.1,29.81,SE,131,7.0,9.0,89,0.02,,BKN110,0.04,18.00,VWS V14.01,2013-02-21 13:45:00,
2013-02-21 07:46:00,27.5,25.0,29.90,SE,141,0.0,7.0,90,0.02,,OVC055,0.02,5.00,VWS V14.01,2013-02-21 13:46:00,
2013-02-21 07:50:00,26.9,24.1,29.81,ESE,121,8.0,13.0,89,0.02,,BKN110,0.04,21.00,VWS V14.01,2013-02-21 13:50:00,
2013-02-21 07:51:00,27.5,24.7,29.90,ESE,121,0.0,3.0,89,0.02,,OVC041,0.02,11.00,VWS V14.01,2013-02-21 13:51:00,
2013-02-21 07:55:00,26.9,24.1,29.81,East,99,5.0,13.0,89,0.02,,BKN110,0.04,18.00,VWS V14.01,2013-02-21 13:55:00,
2013-02-21 07:56:00,27.6,25.1,29.90,SE,135,0.0,1.0,90,0.03,,OVC041,0.03,12.00,VWS V14.01,2013-02-21 13:56:00,
2013-02-21 08:00:00,26.9,24.1,29.81,SSE,150,3.0,14.0,89,0.01,,BKN110,0.04,0.00,VWS V14.01,2013-02-21 14:00:00,
2013-02-21 08:01:00,27.4,24.6,29.84,SSE,149,3.0,3.0,89,0.03,,OVC041,0.03,14.00,VWS V14.01,2013-02-21 14:01:00,
2013-02-21 08:05:00,27.0,24.2,29.81,SW,220,2.0,17.0,89,0.02,,BKN110,0.05,7.00,VWS V14.01,2013-02-21 14:05:00,
2013-02-21 08:06:00,27.5,25.0,29.84,ESE,107,5.0,5.0,90,0.03,,,0.03,9.00,VWS V14.01,2013-02-21 14:06:00,
2013-02-21 08:10:00,27.1,24.6,29.81,ESE,109,3.0,8.0,90,0.02,,BKN110,0.05,14.00,VWS V14.01,2013-02-21 14:10:00,
2013-02-21 08:11:00,27.4,24.6,29.84,West,270,0.0,4.0,89,0.03,,,0.03,7.00,VWS V14.01,2013-02-21 14:11:00,
2013-02-21 08:15:00,27.2,24.7,29.76,ENE,74,1.0,10.0,90,0.02,,BKN110,0.05,21.00,VWS V14.01,2013-02-21 14:15:00,
2013-02-21 08:16:00,27.3,24.5,29.83,SSE,157,4.0,4.0,89,0.04,,,0.04,11.00,VWS V14.01,2013-02-21 14:16:00,
2013-02-21 08:20:00,27.2,24.4,29.76,SE,145,2.0,10.0,89,0.01,,BKN110,0.05,19.00,VWS V14.01,2013-02-21 14:20:00,
2013-02-21 08:21:00,27.1,24.3,29.83,East,86,3.0,7.0,89,0.04,,,0.04,21.00,VWS V14.01,2013-02-21 14:21:00,
2013-02-21 08:25:00,27.1,24.3,29.76,ESE,107,0.0,11.0,89,0.01,,BKN110,0.05,19.00,VWS V14.01,2013-02-21 14:25:00,
2013-02-21 08:26:00,27.0,24.2,29.83,SE,136,7.0,11.0,89,0.03,,,0.04,28.00,VWS V14.01,2013-02-21 14:26:00,
2013-02-21 08:30:00,27.1,24.3,29.78,East,96,3.0,14.0,89,0.01,,BKN110,0.05,16.00,VWS V14.01,2013-02-21 14:30:00,
2013-02-21 08:31:00,26.9,24.1,29.80,East,100,0.0,3.0,89,0.03,,OVC037,0.04,18.00,VWS V14.01,2013-02-21 14:31:00,
2013-02-21 08:35:00,27.1,24.3,29.78,ESE,116,1.0,10.0,89,0.01,,BKN110,0.05,23.00,VWS V14.01,2013-02-21 14:35:00,
2013-02-21 08:36:00,26.9,24.1,29.80,ESE,115,4.0,10.0,89,0.03,,OVC037,0.04,21.00,VWS V14.01,2013-02-21 14:36:00,
2013-02-21 08:40:00,27.1,24.3,29.78,East,95,0.0,7.0,89,0.01,,BKN110,0.05,11.00,VWS V14.01,2013-02-21 14:40:00,
2013-02-21 08:41:00,26.9,24.1,29.80,ESE,120,1.0,3.0,89,0.02,,OVC037,0.04,18.00,VWS V14.01,2013-02-21 14:41:00,
2013-02-21 08:45:00,27.2,24.4,29.85,NNW,335,0.0,6.0,89,0.01,,BKN110,0.05,7.00,VWS V14.01,2013-02-21 14:45:00,
2013-02-21 08:46:00,26.9,24.1,29.81,East,96,2.0,9.0,89,0.02,,OVC037,0.04,18.00,VWS V14.01,2013-02-21 14:46:00,
2013-02-21 08:50:00,27.2,24.4,29.85,NNW,329,0.0,2.0,89,0.01,,BKN110,0.05,9.00,VWS V14.01,2013-02-21 14:50:00,
2013-02-21 08:51:00,26.9,24.1,29.81,SE,134,2.0,8.0,89,0.02,,OVC037,0.04,21.00,VWS V14.01,2013-02-21 14:51:00,
2013-02-21 08:55:00,27.3,24.5,29.85,ESE,107,2.0,3.0,89,0.01,,BKN110,0.05,11.00,VWS V14.01,2013-02-21 14:55:00,
2013-02-21 08:56:00,26.9,24.1,29.81,NE,36,7.0,7.0,89,0.01,,OVC037,0.04,18.00,VWS V14.01,2013-02-21 14:56:00,
2013-02-21 09:00:00,27.3,24.5,29.82,West,280,2.0,5.0,89,0.01,,BKN110,0.05,9.00,VWS V14.01,2013-02-21 15:00:00,
2013-02-21 09:01:00,26.9,24.1,29.81,East,88,6.0,17.0,89,0.02,,OVC037,0.05,5.00,VWS V14.01,2013-02-21 15:01:00,
2013-02-21 09:05:00,27.4,24.6,29.82,WNW,290,0.0,7.0,89,0.01,,BKN110,0.05,0.00,VWS V14.01,2013-02-21 15:05:00,
2013-02-21 09:06:00,27.0,24.2,29.81,North,355,0.0,2.0,89,0.02,,OVC037,0.05,11.00,VWS V14.01,2013-02-21 15:06:00,
2013-02-21 09:10:00,27.4,24.9,29.82,ESE,122,0.0,4.0,90,0.00,,BKN110,0.05,11.00,VWS V14.01,2013-02-21 15:10:00,
2013-02-21 09:12:00,27.2,24.7,29.81,ESE,118,0.0,6.0,90,0.02,,OVC037,0.05,11.00,VWS V14.01,2013-02-21 15:12:00,
2013-02-21 09:15:00,27.4,24.9,29.84,South,190,1.0,4.0,90,0.00,,BKN110,0.05,7.00,VWS V14.01,2013-02-21 15:15:00,
2013-02-21 09:17:00,27.2,24.7,29.76,SSW,210,5.0,5.0,90,0.01,,OVC033,0.05,16.00,VWS V14.01,2013-02-21 15:17:00,
2013-02-21 09:20:00,27.4,24.9,29.84,WSW,257,0.0,3.0,90,0.00,,BKN110,0.05,0.00,VWS V14.01,2013-02-21 15:20:00,
2013-02-21 09:22:00,27.1,24.3,29.76,ESE,117,8.0,8.0,89,0.01,,OVC033,0.05,19.00,VWS V14.01,2013-02-21 15:22:00,
2013-02-21 09:25:00,27.5,25.0,29.84,ENE,71,3.0,3.0,90,0.00,,BKN110,0.05,0.00,VWS V14.01,2013-02-21 15:25:00,
2013-02-21 09:27:00,27.1,24.3,29.76,SE,140,3.0,13.0,89,0.01,,OVC033,0.05,18.00,VWS V14.01,2013-02-21 15:27:00,
2013-02-21 09:30:00,27.5,25.2,29.90,West,276,1.0,4.0,91,0.00,,BKN110,0.05,0.00,VWS V14.01,2013-02-21 15:30:00,
2013-02-21 09:32:00,27.1,24.3,29.78,ESE,110,3.0,7.0,89,0.01,,OVC033,0.05,16.00,VWS V14.01,2013-02-21 15:32:00,
2013-02-21 09:35:00,27.5,25.2,29.90,ESE,113,0.0,3.0,91,0.00,,BKN110,0.05,19.00,VWS V14.01,2013-02-21 15:35:00,
2013-02-21 09:37:00,27.1,24.3,29.78,NNW,346,3.0,4.0,89,0.01,,OVC033,0.05,18.00,VWS V14.01,2013-02-21 15:37:00,
2013-02-21 09:40:00,27.5,25.2,29.90,West,262,0.0,1.0,91,0.00,,BKN110,0.05,21.00,VWS V14.01,2013-02-21 15:40:00,
2013-02-21 09:42:00,27.1,24.3,29.78,West,263,0.0,6.0,89,0.01,,OVC033,0.05,11.00,VWS V14.01,2013-02-21 15:42:00,
2013-02-21 09:45:00,27.5,25.2,29.90,ESE,109,3.0,3.0,91,0.00,,BKN110,0.05,14.00,VWS V14.01,2013-02-21 15:45:00,
2013-02-21 09:47:00,27.2,24.4,29.85,NNW,334,0.0,0.0,89,0.01,,OVC032,0.05,5.00,VWS V14.01,2013-02-21 15:47:00,
2013-02-21 09:50:00,27.4,25.1,29.90,ESE,109,0.0,3.0,91,0.00,,BKN110,0.05,21.00,VWS V14.01,2013-02-21 15:50:00,
2013-02-21 09:52:00,27.3,24.5,29.85,ENE,64,1.0,2.0,89,0.01,,OVC032,0.05,12.00,VWS V14.01,2013-02-21 15:52:00,
2013-02-21 09:55:00,27.4,25.1,29.90,NE,48,0.0,2.0,91,0.00,,BKN110,0.05,18.00,VWS V14.01,2013-02-21 15:55:00,
2013-02-21 09:57:00,27.3,24.5,29.85,ESE,106,0.0,2.0,89,0.01,,OVC032,0.05,14.00,VWS V14.01,2013-02-21 15:57:00,
2013-02-21 10:00:00,27.4,25.4,29.89,East,87,0.0,2.0,92,0.00,,BKN110,0.05,19.00,VWS V14.01,2013-02-21 16:00:00,
2013-02-21 10:02:00,27.3,24.5,29.82,WNW,294,4.0,7.0,89,0.01,,OVC037,0.05,0.00,VWS V14.01,2013-02-21 16:02:00,
2013-02-21 10:05:00,27.4,25.4,29.89,East,87,0.0,0.0,92,0.00,,BKN110,0.05,16.00,VWS V14.01,2013-02-21 16:05:00,
2013-02-21 10:07:00,27.4,24.9,29.82,NE,44,3.0,4.0,90,0.00,,OVC037,0.05,12.00,VWS V14.01,2013-02-21 16:07:00,
2013-02-21 10:10:00,27.4,25.4,29.89,East,87,0.0,1.0,92,0.00,,BKN110,0.05,46.00,VWS V14.01,2013-02-21 16:10:00,
2013-02-21 10:12:00,27.4,24.9,29.82,South,181,1.0,2.0,90,0.00,,OVC037,0.05,12.00,VWS V14.01,2013-02-21 16:12:00,
2013-02-21 10:15:00,27.4,25.4,29.92,WSW,245,2.0,5.0,92,0.00,,BKN110,0.05,28.00,VWS V14.01,2013-02-21 16:15:00,
2013-02-21 10:17:00,27.4,24.9,29.84,WSW,257,0.0,3.0,90,0.00,,OVC037,0.05,0.00,VWS V14.01,2013-02-21 16:17:00,
2013-02-21 10:20:00,27.4,25.4,29.92,SSE,165,0.0,3.0,92,0.00,,BKN110,0.05,56.00,VWS V14.01,2013-02-21 16:20:00,
2013-02-21 10:22:00,27.4,24.9,29.84,WSW,257,0.0,0.0,90,0.00,,OVC037,0.05,0.00,VWS V14.01,2013-02-21 16:22:00,
2013-02-21 10:25:00,27.5,25.5,29.92,SSE,167,0.0,1.0,92,0.00,,BKN110,0.05,97.00,VWS V14.01,2013-02-21 16:25:00,
2013-02-21 10:27:00,27.5,25.0,29.84,NE,37,0.0,4.0,90,0.00,,OVC037,0.05,5.00,VWS V14.01,2013-02-21 16:27:00,
2013-02-21 10:30:00,27.6,25.8,29.87,ESE,115,0.0,2.0,93,0.00,,BKN110,0.05,107.00,VWS V14.01,2013-02-21 16:30:00,
2013-02-21 10:32:00,27.5,25.2,29.90,ESE,117,2.0,2.0,91,0.00,,,0.05,7.00,VWS V14.01,2013-02-21 16:32:00,
2013-02-21 10:35:00,27.8,26.0,29.87,ENE,76,0.0,1.0,93,0.00,,BKN110,0.05,72.00,VWS V14.01,2013-02-21 16:35:00,
2013-02-21 10:37:00,27.5,25.2,29.90,South,176,0.0,1.0,91,0.00,,,0.05,21.00,VWS V14.01,2013-02-21 16:37:00,
2013-02-21 10:40:00,27.9,26.1,29.87,SE,139,1.0,3.0,93,0.00,,BKN110,0.05,123.00,VWS V14.01,2013-02-21 16:40:00,
2013-02-21 10:42:00,27.5,25.2,29.90,West,261,0.0,2.0,91,0.00,,,0.05,12.00,VWS V14.01,2013-02-21 16:42:00,
2013-02-21 10:45:00,28.0,26.2,29.83,SE,140,2.0,3.0,93,0.00,,BKN110,0.05,100.00,VWS V14.01,2013-02-21 16:45:00,
2013-02-21 10:48:00,27.5,25.2,29.90,ESE,109,0.0,3.0,91,0.00,,,0.05,21.00,VWS V14.01,2013-02-21 16:48:00,
2013-02-21 10:50:00,28.0,26.2,29.83,ESE,102,2.0,5.0,93,0.00,,BKN110,0.05,95.00,VWS V14.01,2013-02-21 16:50:00,
2013-02-21 10:53:00,27.4,25.1,29.90,NE,48,0.0,2.0,91,0.00,,,0.05,32.00,VWS V14.01,2013-02-21 16:53:00,
2013-02-21 10:55:00,28.0,26.2,29.83,SE,144,2.0,4.0,93,0.00,,BKN110,0.05,148.00,VWS V14.01,2013-02-21 16:55:00,
2013-02-21 10:58:00,27.4,25.4,29.90,NE,48,0.0,0.0,92,0.00,,,0.05,12.00,VWS V14.01,2013-02-21 16:58:00,
2013-02-21 11:00:00,28.1,26.3,29.82,East,101,0.0,7.0,93,0.00,,BKN110,0.05,178.00,VWS V14.01,2013-02-21 17:00:00,
2013-02-21 11:03:00,27.4,25.4,29.89,East,87,0.0,0.0,92,0.00,,,0.05,16.00,VWS V14.01,2013-02-21 17:03:00,
2013-02-21 11:05:00,28.2,26.4,29.82,NNE,22,0.0,4.0,93,0.00,,BKN110,0.05,171.00,VWS V14.01,2013-02-21 17:05:00,
2013-02-21 11:08:00,27.4,25.4,29.89,East,87,0.0,1.0,92,0.00,,,0.05,32.00,VWS V14.01,2013-02-21 17:08:00,
2013-02-21 11:10:00,28.4,26.6,29.82,ENE,77,0.0,3.0,93,0.00,,BKN110,0.05,193.00,VWS V14.01,2013-02-21 17:10:00,
2013-02-21 11:13:00,27.4,25.4,29.89,NW,307,1.0,2.0,92,0.00,,,0.05,40.00,VWS V14.01,2013-02-21 17:13:00,
2013-02-21 11:15:00,28.4,26.6,29.80,South,183,0.0,3.0,93,0.00,,BKN110,0.05,269.00,VWS V14.01,2013-02-21 17:15:00,
2013-02-21 11:18:00,27.4,25.4,29.92,SW,217,0.0,3.0,92,0.00,,,0.05,30.00,VWS V14.01,2013-02-21 17:18:00,
2013-02-21 11:20:00,28.7,26.9,29.80,East,87,0.0,4.0,93,0.00,,BKN110,0.05,278.00,VWS V14.01,2013-02-21 17:20:00,
2013-02-21 11:23:00,27.5,25.5,29.92,SSE,165,0.0,0.0,92,0.00,,,0.05,93.00,VWS V14.01,2013-02-21 17:23:00,
2013-02-21 11:25:00,28.8,27.0,29.80,ESE,119,0.0,6.0,93,0.00,,BKN110,0.05,86.00,VWS V14.01,2013-02-21 17:25:00,
2013-02-21 11:28:00,27.6,25.8,29.92,ESE,115,1.0,2.0,93,0.00,,,0.05,98.00,VWS V14.01,2013-02-21 17:28:00,
2013-02-21 11:30:00,28.8,27.0,29.82,ESE,115,0.0,4.0,93,0.00,,BKN110,0.05,77.00,VWS V14.01,2013-02-21 17:30:00,
2013-02-21 11:33:00,27.7,25.9,29.87,ESE,115,0.0,0.0,93,0.00,,,0.05,72.00,VWS V14.01,2013-02-21 17:33:00,
2013-02-21 11:35:00,28.7,26.9,29.82,East,100,2.0,5.0,93,0.00,,BKN110,0.05,134.00,VWS V14.01,2013-02-21 17:35:00,
2013-02-21 11:38:00,27.8,26.0,29.87,ENE,76,0.0,0.0,93,0.00,,,0.05,111.00,VWS V14.01,2013-02-21 17:38:00,
2013-02-21 11:40:00,28.8,27.0,29.82,SSE,153,0.0,4.0,93,0.00,,BKN110,0.05,315.00,VWS V14.01,2013-02-21 17:40:00,
2013-02-21 11:43:00,28.0,26.2,29.87,SE,141,0.0,1.0,93,0.00,,,0.05,107.00,VWS V14.01,2013-02-21 17:43:00,
2013-02-21 11:45:00,29.1,27.3,29.76,SSE,148,2.0,5.0,93,0.00,,BKN110,0.05,213.00,VWS V14.01,2013-02-21 17:45:00,
2013-02-21 11:48:00,28.0,26.2,29.83,East,99,0.0,5.0,93,0.00,,,0.05,74.00,VWS V14.01,2013-02-21 17:48:00,
2013-02-21 11:50:00,29.1,27.3,29.76,SSE,150,0.0,10.0,93,0.00,,BKN110,0.05,121.00,VWS V14.01,2013-02-21 17:50:00,
2013-02-21 11:53:00,28.0,26.2,29.83,South,178,0.0,2.0,93,0.00,,,0.05,74.00,VWS V14.01,2013-02-21 17:53:00,
2013-02-21 11:55:00,28.9,27.1,29.76,ENE,76,0.0,10.0,93,0.00,,BKN110,0.05,84.00,VWS V14.01,2013-02-21 17:55:00,
2013-02-21 11:58:00,28.0,26.2,29.83,ESE,109,0.0,7.0,93,0.00,,,0.05,202.00,VWS V14.01,2013-02-21 17:58:00,
2013-02-21 12:00:00,28.9,26.9,29.77,ENE,76,3.0,8.0,92,0.00,,BKN110,0.05,132.00,VWS V14.01,2013-02-21 18:00:00,
2013-02-21 12:03:00,28.1,26.3,29.82,ESE,107,0.0,4.0,93,0.00,,,0.05,174.00,VWS V14.01,2013-02-21 18:03:00,
2013-02-21 12:05:00,28.8,26.8,29.77,ENE,76,0.0,9.0,92,0.00,,BKN110,0.05,146.00,VWS V14.01,2013-02-21 18:05:00,
2013-02-21 12:08:00,28.3,26.5,29.82,SSE,159,0.0,3.0,93,0.00,,,0.05,155.00,VWS V14.01,2013-02-21 18:08:00,
2013-02-21 12:10:00,28.9,26.9,29.77,ENE,76,0.0,4.0,92,0.00,,BKN110,0.05,424.00,VWS V14.01,2013-02-21 18:10:00,
2013-02-21 12:13:00,28.4,26.6,29.82,NE,44,1.0,3.0,93,0.00,,,0.05,199.00,VWS V14.01,2013-02-21 18:13:00,
2013-02-21 12:15:00,29.3,27.3,29.75,ENE,76,1.0,4.0,92,0.00,,BKN110,0.05,192.00,VWS V14.01,2013-02-21 18:15:00,
2013-02-21 12:18:00,28.6,26.8,29.80,ESE,121,3.0,4.0,93,0.00,,,0.05,229.00,VWS V14.01,2013-02-21 18:18:00,
2013-02-21 12:20:00,29.4,27.4,29.75,ENE,76,11.0,11.0,92,0.00,,BKN110,0.05,146.00,VWS V14.01,2013-02-21 18:20:00,
2013-02-21 12:23:00,28.8,27.0,29.80,SE,136,1.0,2.0,93,0.00,,,0.05,97.00,VWS V14.01,2013-02-21 18:23:00,
2013-02-21 12:25:00,29.3,27.3,29.75,ENE,76,7.0,11.0,92,0.00,,BKN110,0.05,113.00,VWS V14.01,2013-02-21 18:25:00,
2013-02-21 12:28:00,28.8,27.0,29.80,ESE,119,1.0,4.0,93,0.00,,,0.05,90.00,VWS V14.01,2013-02-21 18:28:00,
2013-02-21 12:30:00,29.2,27.2,29.74,ENE,76,4.0,8.0,92,0.00,,BKN110,0.05,109.00,VWS V14.01,2013-02-21 18:30:00,
2013-02-21 12:33:00,28.7,26.9,29.82,ESE,116,1.0,5.0,93,0.00,,,0.05,102.00,VWS V14.01,2013-02-21 18:33:00,
2013-02-21 12:35:00,29.1,27.1,29.74,ENE,76,1.0,5.0,92,0.00,,BKN110,0.05,76.00,VWS V14.01,2013-02-21 18:35:00,
2013-02-21 12:38:00,28.7,26.9,29.82,SSE,154,1.0,4.0,93,0.00,,,0.05,301.00,VWS V14.01,2013-02-21 18:38:00,
2013-02-21 12:40:00,29.0,27.0,29.74,ENE,76,3.0,10.0,92,0.00,,BKN110,0.05,118.00,VWS V14.01,2013-02-21 18:40:00,
2013-02-21 12:43:00,29.0,27.2,29.82,ESE,115,2.0,2.0,93,0.00,,,0.05,232.00,VWS V14.01,2013-02-21 18:43:00,
2013-02-21 12:45:00,29.0,27.0,29.72,ENE,76,0.0,7.0,92,0.00,,BKN110,0.05,113.00,VWS V14.01,2013-02-21 18:45:00,
2013-02-21 12:49:00,29.1,27.3,29.76,East,82,0.0,10.0,93,0.00,,,0.05,237.00,VWS V14.01,2013-02-21 18:49:00,
2013-02-21 12:50:00,29.1,27.1,29.72,ENE,76,0.0,5.0,92,0.00,,BKN110,0.05,56.00,VWS V14.01,2013-02-21 18:50:00,
2013-02-21 12:54:00,29.0,27.2,29.76,ENE,76,5.0,10.0,93,0.00,,,0.05,118.00,VWS V14.01,2013-02-21 18:54:00,
2013-02-21 12:55:00,29.1,27.1,29.72,ENE,76,2.0,9.0,92,0.00,,BKN110,0.05,60.00,VWS V14.01,2013-02-21 18:55:00,
2013-02-21 12:59:00,28.9,26.9,29.76,ENE,76,4.0,8.0,92,0.00,,,0.05,98.00,VWS V14.01,2013-02-21 18:59:00,
2013-02-21 13:00:00,29.0,27.0,29.71,ENE,76,4.0,8.0,92,0.00,,BKN110,0.05,72.00,VWS V14.01,2013-02-21 19:00:00,
2013-02-21 13:04:00,28.9,26.9,29.77,ENE,76,4.0,5.0,92,0.00,,OVC039,0.05,130.00,VWS V14.01,2013-02-21 19:04:00,
2013-02-21 13:05:00,29.0,27.0,29.71,ENE,76,1.0,7.0,92,0.00,,BKN110,0.05,58.00,VWS V14.01,2013-02-21 19:05:00,
2013-02-21 13:09:00,28.8,26.8,29.77,ENE,76,0.0,4.0,92,0.00,,OVC039,0.05,171.00,VWS V14.01,2013-02-21 19:09:00,
2013-02-21 13:10:00,29.1,27.3,29.71,ENE,76,0.0,4.0,93,0.00,,BKN110,0.05,49.00,VWS V14.01,2013-02-21 19:10:00,
2013-02-21 13:14:00,29.2,27.2,29.77,ENE,76,1.0,4.0,92,0.00,,OVC039,0.05,287.00,VWS V14.01,2013-02-21 19:14:00,
2013-02-21 13:15:00,29.1,27.3,29.71,ENE,76,2.0,8.0,93,0.00,,BKN110,0.05,44.00,VWS V14.01,2013-02-21 19:15:00,
2013-02-21 13:19:00,29.5,27.5,29.75,ENE,76,4.0,4.0,92,0.00,,OVC039,0.05,139.00,VWS V14.01,2013-02-21 19:19:00,
2013-02-21 13:20:00,29.1,27.3,29.71,ENE,76,0.0,8.0,93,0.00,,BKN110,0.05,67.00,VWS V14.01,2013-02-21 19:20:00,
2013-02-21 13:24:00,29.4,27.4,29.75,ENE,76,3.0,11.0,92,0.00,,OVC039,0.05,123.00,VWS V14.01,2013-02-21 19:24:00,
2013-02-21 13:25:00,29.2,27.4,29.71,ENE,76,0.0,9.0,93,0.00,,BKN110,0.05,58.00,VWS V14.01,2013-02-21 19:25:00,
2013-02-21 13:29:00,29.2,27.2,29.75,ENE,76,2.0,8.0,92,0.00,,OVC039,0.05,113.00,VWS V14.01,2013-02-21 19:29:00,
2013-02-21 13:30:00,29.3,27.5,29.70,ENE,76,1.0,10.0,93,0.00,,BKN110,0.05,67.00,VWS V14.01,2013-02-21 19:30:00,
2013-02-21 13:34:00,29.1,27.1,29.74,ENE,76,4.0,5.0,92,0.00,,OVC037,0.05,81.00,VWS V14.01,2013-02-21 19:34:00,
2013-02-21 13:35:00,29.4,27.6,29.70,ENE,76,2.0,7.0,93,0.00,,BKN110,0.05,62.00,VWS V14.01,2013-02-21 19:35:00,
2013-02-21 13:39:00,29.0,27.0,29.74,ENE,76,8.0,10.0,92,0.00,,OVC037,0.05,123.00,VWS V14.01,2013-02-21 19:39:00,
2013-02-21 13:40:00,29.5,27.7,29.70,ENE,76,2.0,4.0,93,0.00,,BKN110,0.05,62.00,VWS V14.01,2013-02-21 19:40:00,
2013-02-21 13:44:00,29.0,27.0,29.74,ENE,76,1.0,7.0,92,0.00,,OVC037,0.05,102.00,VWS V14.01,2013-02-21 19:44:00,
2013-02-21 13:45:00,29.6,27.8,29.69,ENE,76,2.0,10.0,93,0.00,,BKN110,0.05,46.00,VWS V14.01,2013-02-21 19:45:00,
2013-02-21 13:49:00,29.1,27.1,29.72,ENE,76,2.0,5.0,92,0.00,,OVC037,0.05,74.00,VWS V14.01,2013-02-21 19:49:00,
2013-02-21 13:50:00,29.6,27.8,29.69,ENE,76,3.0,11.0,93,0.00,,BKN110,0.05,47.00,VWS V14.01,2013-02-21 19:50:00,
2013-02-21 13:54:00,29.1,27.1,29.72,ENE,76,1.0,9.0,92,0.00,,OVC037,0.05,53.00,VWS V14.01,2013-02-21 19:54:00,
2013-02-21 13:55:00,29.6,27.8,29.69,ENE,76,0.0,8.0,93,0.00,,BKN110,0.05,76.00,VWS V14.01,2013-02-21 19:55:00,
2013-02-21 13:59:00,29.0,27.0,29.72,ENE,76,1.0,8.0,92,0.00,,OVC037,0.05,69.00,VWS V14.01,2013-02-21 19:59:00,
2013-02-21 14:00:00,29.7,27.9,29.69,ENE,76,3.0,10.0,93,0.00,,BKN110,0.05,44.00,VWS V14.01,2013-02-21 20:00:00,
2013-02-21 14:04:00,29.1,27.1,29.71,ENE,76,3.0,7.0,92,0.00,,OVC037,0.05,63.00,VWS V14.01,2013-02-21 20:04:00,
2013-02-21 14:05:00,29.7,27.9,29.69,ENE,76,4.0,7.0,93,0.00,,BKN110,0.05,46.00,VWS V14.01,2013-02-21 20:05:00,
2013-02-21 14:10:00,29.1,27.3,29.71,ENE,76,0.0,4.0,93,0.00,,OVC037,0.05,47.00,VWS V14.01,2013-02-21 20:10:00,
2013-02-21 14:15:00,29.1,27.3,29.71,ENE,76,4.0,8.0,93,0.00,,OVC037,0.05,44.00,VWS V14.01,2013-02-21 20:15:00,
2013-02-21 14:20:00,29.1,27.3,29.71,ENE,76,2.0,8.0,93,0.00,,OVC013,0.05,60.00,VWS V14.01,2013-02-21 20:20:00,
2013-02-21 14:25:00,29.2,27.4,29.71,ENE,76,4.0,9.0,93,0.00,,OVC013,0.05,54.00,VWS V14.01,2013-02-21 20:25:00,
2013-02-21 14:30:00,29.3,27.5,29.70,ENE,76,0.0,10.0,93,0.00,,OVC013,0.05,63.00,VWS V14.01,2013-02-21 20:30:00,
2013-02-21 14:35:00,29.4,27.6,29.70,ENE,76,3.0,7.0,93,0.00,,OVC013,0.05,51.00,VWS V14.01,2013-02-21 20:35:00,
2013-02-21 14:40:00,29.5,27.7,29.70,ENE,76,2.0,4.0,93,0.00,,OVC013,0.05,76.00,VWS V14.01,2013-02-21 20:40:00,
2013-02-21 14:45:00,29.6,27.8,29.69,ENE,76,3.0,10.0,93,0.00,,OVC013,0.05,53.00,VWS V14.01,2013-02-21 20:45:00,
2013-02-21 14:50:00,29.6,27.8,29.69,ENE,76,0.0,11.0,93,0.00,,OVC013,0.05,47.00,VWS V14.01,2013-02-21 20:50:00,
2013-02-21 14:55:00,29.6,27.8,29.69,ENE,76,0.0,8.0,93,0.00,,OVC013,0.05,76.00,VWS V14.01,2013-02-21 20:55:00,
2013-02-21 15:00:00,29.7,27.9,29.69,ENE,76,0.0,10.0,93,0.00,,OVC013,0.05,44.00,VWS V14.01,2013-02-21 21:00:00,
2013-02-21 15:05:00,29.7,27.9,29.69,ENE,76,3.0,7.0,93,0.00,,OVC011,0.05,46.00,VWS V14.01,2013-02-21 21:05:00,
2013-02-21 15:10:00,29.7,27.9,29.69,ENE,76,2.0,10.0,93,0.00,,OVC011,0.05,42.00,VWS V14.01,2013-02-21 21:10:00,
2013-02-21 15:15:00,29.8,28.0,29.69,ENE,76,1.0,4.0,93,0.00,,OVC011,0.05,42.00,VWS V14.01,2013-02-21 21:15:00,
2013-02-21 15:20:00,29.8,28.0,29.69,ENE,76,2.0,10.0,93,0.00,,OVC011,0.05,56.00,VWS V14.01,2013-02-21 21:20:00,
2013-02-21 15:25:00,29.8,28.0,29.69,ENE,76,0.0,11.0,93,0.00,,OVC011,0.05,39.00,VWS V14.01,2013-02-21 21:25:00,
2013-02-21 15:30:00,29.9,28.1,29.69,ENE,76,0.0,10.0,93,0.00,,OVC011,0.05,49.00,VWS V14.01,2013-02-21 21:30:00,
2013-02-21 15:35:00,29.9,28.1,29.69,ENE,76,0.0,7.0,93,0.00,,OVC011,0.05,37.00,VWS V14.01,2013-02-21 21:35:00,
2013-02-21 15:40:00,30.0,28.5,29.68,ENE,76,2.0,5.0,94,0.00,,BKN110,0.05,18.00,VWS V14.01,2013-02-21 21:40:00,
2013-02-21 15:41:00,29.9,28.1,29.69,ENE,76,5.0,8.0,93,0.00,,OVC011,0.05,60.00,VWS V14.01,2013-02-21 21:41:00,
2013-02-21 15:45:00,30.0,28.5,29.69,ENE,76,2.0,4.0,94,0.00,,BKN110,0.05,18.00,VWS V14.01,2013-02-21 21:45:00,
2013-02-21 15:46:00,29.9,28.1,29.69,ENE,76,2.0,13.0,93,0.00,,OVC011,0.05,44.00,VWS V14.01,2013-02-21 21:46:00,
2013-02-21 15:50:00,30.0,28.5,29.69,ENE,76,8.0,9.0,94,0.00,,BKN110,0.05,14.00,VWS V14.01,2013-02-21 21:50:00,
2013-02-21 15:51:00,29.9,28.1,29.69,ENE,76,3.0,7.0,93,0.00,,OVC011,0.05,37.00,VWS V14.01,2013-02-21 21:51:00,
2013-02-21 15:55:00,30.0,28.5,29.69,ENE,76,0.0,10.0,94,0.00,,BKN110,0.05,14.00,VWS V14.01,2013-02-21 21:55:00,
2013-02-21 15:56:00,29.9,28.1,29.69,ENE,76,1.0,5.0,93,0.00,,OVC011,0.05,42.00,VWS V14.01,2013-02-21 21:56:00,
2013-02-21 16:00:00,30.0,28.5,29.69,ENE,76,0.0,3.0,94,0.00,,BKN110,0.05,11.00,VWS V14.01,2013-02-21 22:00:00,
2013-02-21 16:01:00,30.0,28.2,29.68,ENE,76,3.0,7.0,93,0.00,,OVC011,0.05,39.00,VWS V14.01,2013-02-21 22:01:00,
2013-02-21 16:05:00,30.0,28.5,29.69,ENE,76,0.0,5.0,94,0.00,,BKN110,0.05,18.00,VWS V14.01,2013-02-21 22:05:00,
2013-02-21 16:06:00,30.0,28.2,29.68,ENE,76,0.0,8.0,93,0.00,,OVC011,0.05,42.00,VWS V14.01,2013-02-21 22:06:00,
2013-02-21 16:10:00,30.1,28.6,29.69,ENE,76,0.0,4.0,94,0.00,,BKN110,0.05,12.00,VWS V14.01,2013-02-21 22:10:00,
2013-02-21 16:11:00,30.0,28.2,29.68,ENE,76,2.0,9.0,93,0.00,,OVC011,0.05,19.00,VWS V14.01,2013-02-21 22:11:00,
2013-02-21 16:15:00,30.1,28.6,29.70,ENE,76,0.0,5.0,94,0.00,,BKN110,0.05,9.00,VWS V14.01,2013-02-21 22:15:00,
2013-02-21 16:16:00,30.0,28.5,29.69,ENE,76,4.0,12.0,94,0.00,,,0.05,35.00,VWS V14.01,2013-02-21 22:16:00,
2013-02-21 16:20:00,30.2,28.7,29.70,ENE,76,0.0,8.0,94,0.00,,BKN110,0.05,5.00,VWS V14.01,2013-02-21 22:20:00,
2013-02-21 16:21:00,30.0,28.5,29.69,ENE,76,1.0,4.0,94,0.00,,,0.05,46.00,VWS V14.01,2013-02-21 22:21:00,
2013-02-21 16:25:00,30.2,28.7,29.70,ENE,76,4.0,4.0,94,0.00,,BKN110,0.05,0.00,VWS V14.01,2013-02-21 22:25:00,
2013-02-21 16:26:00,30.0,28.5,29.69,ENE,76,2.0,5.0,94,0.00,,,0.05,28.00,VWS V14.01,2013-02-21 22:26:00,
2013-02-21 16:30:00,30.2,28.9,29.72,ENE,76,0.0,5.0,95,0.00,,BKN110,0.05,0.00,VWS V14.01,2013-02-21 22:30:00,
2013-02-21 16:31:00,30.0,28.5,29.68,ENE,76,4.0,9.0,94,0.00,,,0.05,46.00,VWS V14.01,2013-02-21 22:31:00,
2013-02-21 16:35:00,30.3,29.0,29.72,ENE,76,1.0,4.0,95,0.00,,BKN110,0.05,5.00,VWS V14.01,2013-02-21 22:35:00,
2013-02-21 16:36:00,30.0,28.5,29.68,ENE,76,5.0,8.0,94,0.00,,,0.05,25.00,VWS V14.01,2013-02-21 22:36:00,
2013-02-21 16:40:00,30.3,29.0,29.72,ENE,76,1.0,4.0,95,0.00,,BKN110,0.05,0.00,VWS V14.01,2013-02-21 22:40:00,
2013-02-21 16:41:00,30.0,28.5,29.68,ENE,76,2.0,5.0,94,0.00,,,0.05,18.00,VWS V14.01,2013-02-21 22:41:00,
2013-02-21 16:45:00,30.3,29.0,29.72,ENE,76,1.0,4.0,95,0.00,,BKN110,0.05,0.00,VWS V14.01,2013-02-21 22:45:00,
2013-02-21 16:46:00,30.0,28.5,29.69,ENE,76,2.0,4.0,94,0.00,,,0.05,18.00,VWS V14.01,2013-02-21 22:46:00,
2013-02-21 16:50:00,30.3,29.0,29.72,ENE,76,0.0,3.0,95,0.00,,BKN110,0.05,0.00,VWS V14.01,2013-02-21 22:50:00,
2013-02-21 16:51:00,30.0,28.5,29.69,ENE,76,8.0,9.0,94,0.00,,,0.05,14.00,VWS V14.01,2013-02-21 22:51:00,
2013-02-21 16:55:00,30.3,29.0,29.72,ENE,76,0.0,10.0,95,0.00,,BKN110,0.05,0.00,VWS V14.01,2013-02-21 22:55:00,
2013-02-21 16:56:00,30.0,28.5,29.69,ENE,76,0.0,10.0,94,0.00,,,0.05,14.00,VWS V14.01,2013-02-21 22:56:00,
2013-02-21 17:00:00,30.3,29.0,29.73,ENE,76,1.0,5.0,95,0.00,,BKN110,0.05,0.00,VWS V14.01,2013-02-21 23:00:00,
2013-02-21 17:01:00,30.0,28.5,29.69,ENE,76,0.0,3.0,94,0.00,,,0.05,11.00,VWS V14.01,2013-02-21 23:01:00,
2013-02-21 17:05:00,30.3,29.0,29.73,ENE,76,0.0,5.0,95,0.00,,BKN110,0.05,0.00,VWS V14.01,2013-02-21 23:05:00,
2013-02-21 17:06:00,30.0,28.5,29.69,ENE,76,0.0,5.0,94,0.00,,,0.05,18.00,VWS V14.01,2013-02-21 23:06:00,
2013-02-21 17:10:00,30.3,29.0,29.73,ENE,76,1.0,3.0,95,0.00,,BKN110,0.05,0.00,VWS V14.01,2013-02-21 23:10:00,
2013-02-21 17:11:00,30.1,28.6,29.69,ENE,76,0.0,4.0,94,0.00,,,0.05,12.00,VWS V14.01,2013-02-21 23:11:00,
2013-02-21 17:15:00,30.3,29.0,29.73,ENE,76,1.0,5.0,95,0.00,,BKN110,0.05,0.00,VWS V14.01,2013-02-21 23:15:00,
2013-02-21 17:16:00,30.1,28.6,29.70,ENE,76,0.0,5.0,94,0.00,,,0.05,9.00,VWS V14.01,2013-02-21 23:16:00,
2013-02-21 17:20:00,30.3,29.0,29.73,ENE,76,2.0,5.0,95,0.00,,BKN110,0.05,0.00,VWS V14.01,2013-02-21 23:20:00,
2013-02-21 17:21:00,30.2,28.7,29.70,ENE,76,0.0,8.0,94,0.00,,,0.05,5.00,VWS V14.01,2013-02-21 23:21:00,
2013-02-21 17:25:00,30.3,29.0,29.73,ENE,76,0.0,2.0,95,0.00,,BKN110,0.05,0.00,VWS V14.01,2013-02-21 23:25:00,
2013-02-21 17:26:00,30.2,28.7,29.70,ENE,76,4.0,4.0,94,0.00,,,0.05,0.00,VWS V14.01,2013-02-21 23:26:00,
2013-02-21 17:30:00,30.3,29.0,29.73,ENE,76,1.0,7.0,95,0.00,,BKN110,0.05,0.00,VWS V14.01,2013-02-21 23:30:00,
2013-02-21 17:31:00,30.2,28.9,29.72,ENE,76,0.0,5.0,95,0.00,,,0.05,0.00,VWS V14.01,2013-02-21 23:31:00,
2013-02-21 17:35:00,30.3,29.0,29.73,ENE,76,3.0,7.0,95,0.00,,BKN110,0.05,0.00,VWS V14.01,2013-02-21 23:35:00,
2013-02-21 17:36:00,30.3,29.0,29.72,ENE,76,1.0,4.0,95,0.00,,,0.05,5.00,VWS V14.01,2013-02-21 23:36:00,
2013-02-21 17:40:00,30.3,29.0,29.73,ENE,76,1.0,4.0,95,0.00,,BKN110,0.05,0.00,VWS V14.01,2013-02-21 23:40:00,
2013-02-21 17:41:00,30.3,29.0,29.72,ENE,76,1.0,4.0,95,0.00,,,0.05,0.00,VWS V14.01,2013-02-21 23:41:00,
2013-02-21 17:45:00,30.3,29.0,29.74,ENE,76,3.0,7.0,95,0.00,,BKN110,0.05,0.00,VWS V14.01,2013-02-21 23:45:00,
2013-02-21 17:46:00,30.3,29.0,29.72,ENE,76,1.0,4.0,95,0.00,,,0.05,0.00,VWS V14.01,2013-02-21 23:46:00,
2013-02-21 17:50:00,30.3,29.0,29.74,ENE,76,0.0,3.0,95,0.00,,BKN110,0.05,0.00,VWS V14.01,2013-02-21 23:50:00,
2013-02-21 17:51:00,30.3,29.0,29.72,ENE,76,0.0,3.0,95,0.00,,,0.05,0.00,VWS V14.01,2013-02-21 23:51:00,
2013-02-21 17:55:00,30.3,29.0,29.74,ENE,76,3.0,4.0,95,0.00,,BKN110,0.05,0.00,VWS V14.01,2013-02-21 23:55:00,
2013-02-21 17:56:00,30.3,29.0,29.72,ENE,76,0.0,10.0,95,0.00,,,0.05,0.00,VWS V14.01,2013-02-21 23:56:00,
2013-02-21 18:00:00,30.3,29.0,29.74,ENE,76,1.0,7.0,95,0.00,,BKN110,0.05,0.00,VWS V14.01,2013-02-22 00:00:00,
2013-02-21 18:01:00,30.3,29.0,29.73,ENE,76,4.0,4.0,95,0.00,,,0.05,0.00,VWS V14.01,2013-02-22 00:01:00,
2013-02-21 18:05:00,30.3,29.0,29.74,ENE,76,0.0,4.0,95,0.00,,BKN110,0.05,0.00,VWS V14.01,2013-02-22 00:05:00,
2013-02-21 18:06:00,30.3,29.0,29.73,ENE,76,0.0,0.0,95,0.00,,,0.05,0.00,VWS V14.01,2013-02-22 00:06:00,
2013-02-21 18:10:00,30.3,29.0,29.74,ENE,76,1.0,4.0,95,0.00,,BKN110,0.05,0.00,VWS V14.01,2013-02-22 00:10:00,
2013-02-21 18:11:00,30.4,29.1,29.73,ENE,76,0.0,1.0,95,0.00,,,0.05,0.00,VWS V14.01,2013-02-22 00:11:00,
2013-02-21 18:15:00,30.4,29.1,29.74,ENE,76,0.0,7.0,95,0.00,,BKN110,0.05,0.00,VWS V14.01,2013-02-22 00:15:00,
2013-02-21 18:16:00,30.4,29.1,29.73,ENE,76,3.0,3.0,95,0.00,,,0.05,0.00,VWS V14.01,2013-02-22 00:16:00,
2013-02-21 18:20:00,30.4,29.1,29.74,ENE,76,1.0,4.0,95,0.00,,BKN110,0.05,0.00,VWS V14.01,2013-02-22 00:20:00,
2013-02-21 18:21:00,30.3,29.0,29.73,ENE,76,0.0,2.0,95,0.00,,,0.05,0.00,VWS V14.01,2013-02-22 00:21:00,
2013-02-21 18:25:00,30.4,29.1,29.74,ENE,76,2.0,3.0,95,0.00,,BKN110,0.05,0.00,VWS V14.01,2013-02-22 00:25:00,
2013-02-21 18:26:00,30.3,29.0,29.73,ENE,76,0.0,2.0,95,0.00,,,0.05,0.00,VWS V14.01,2013-02-22 00:26:00,
2013-02-21 18:30:00,30.4,29.1,29.74,ENE,76,5.0,8.0,95,0.00,,BKN110,0.05,0.00,VWS V14.01,2013-02-22 00:30:00,
2013-02-21 18:31:00,30.3,29.0,29.73,ENE,76,0.0,3.0,95,0.00,,,0.05,0.00,VWS V14.01,2013-02-22 00:31:00,
2013-02-21 18:35:00,30.4,29.1,29.74,ENE,76,2.0,5.0,95,0.00,,BKN110,0.05,0.00,VWS V14.01,2013-02-22 00:35:00,
2013-02-21 18:36:00,30.3,29.0,29.73,ENE,76,0.0,3.0,95,0.00,,OVC007,0.05,0.00,VWS V14.01,2013-02-22 00:36:00,
2013-02-21 18:40:00,30.5,29.2,29.74,ENE,76,2.0,5.0,95,0.00,,BKN110,0.05,0.00,VWS V14.01,2013-02-22 00:40:00,
2013-02-21 18:41:00,30.3,29.0,29.73,ENE,76,0.0,1.0,95,0.00,,OVC007,0.05,0.00,VWS V14.01,2013-02-22 00:41:00,
2013-02-21 18:45:00,30.5,29.2,29.75,ENE,76,0.0,2.0,95,0.00,,BKN110,0.05,0.00,VWS V14.01,2013-02-22 00:45:00,
2013-02-21 18:46:00,30.3,29.0,29.74,ENE,76,0.0,3.0,95,0.00,,OVC007,0.05,0.00,VWS V14.01,2013-02-22 00:46:00,
2013-02-21 18:50:00,30.5,29.2,29.75,ENE,76,0.0,4.0,95,0.00,,BKN110,0.05,0.00,VWS V14.01,2013-02-22 00:50:00,
2013-02-21 18:51:00,30.3,29.0,29.74,ENE,76,0.0,4.0,95,0.00,,OVC007,0.05,0.00,VWS V14.01,2013-02-22 00:51:00,
2013-02-21 18:55:00,30.5,29.2,29.75,ENE,76,0.0,3.0,95,0.00,,BKN110,0.05,0.00,VWS V14.01,2013-02-22 00:55:00,
2013-02-21 18:56:00,30.3,29.0,29.74,ENE,76,0.0,3.0,95,0.00,,OVC007,0.05,0.00,VWS V14.01,2013-02-22 00:56:00,
2013-02-21 19:00:00,30.6,29.3,29.74,ENE,76,3.0,7.0,95,0.00,,BKN110,0.05,0.00,VWS V14.01,2013-02-22 01:00:00,
2013-02-21 19:01:00,30.3,29.0,29.74,ENE,76,0.0,1.0,95,0.00,,OVC007,0.05,0.00,VWS V14.01,2013-02-22 01:01:00,
2013-02-21 19:05:00,30.6,29.3,29.74,ENE,76,3.0,7.0,95,0.00,,BKN110,0.05,0.00,VWS V14.01,2013-02-22 01:05:00,
2013-02-21 19:06:00,30.3,29.0,29.74,ENE,76,0.0,1.0,95,0.00,,OVC008,0.05,0.00,VWS V14.01,2013-02-22 01:06:00,
2013-02-21 19:10:00,30.6,29.3,29.74,ENE,76,0.0,3.0,95,0.00,,BKN110,0.05,0.00,VWS V14.01,2013-02-22 01:10:00,
2013-02-21 19:11:00,30.3,29.0,29.74,ENE,76,0.0,1.0,95,0.00,,OVC008,0.05,0.00,VWS V14.01,2013-02-22 01:11:00,
2013-02-21 19:15:00,30.6,29.3,29.74,ENE,76,0.0,4.0,95,0.00,,BKN110,0.05,0.00,VWS V14.01,2013-02-22 01:15:00,
2013-02-21 19:16:00,30.4,29.1,29.74,ENE,76,0.0,0.0,95,0.00,,OVC008,0.05,0.00,VWS V14.01,2013-02-22 01:16:00,
2013-02-21 19:20:00,30.6,29.3,29.74,ENE,76,0.0,2.0,95,0.00,,BKN110,0.05,0.00,VWS V14.01,2013-02-22 01:20:00,
2013-02-21 19:21:00,30.4,29.1,29.74,ENE,76,3.0,3.0,95,0.00,,OVC008,0.05,0.00,VWS V14.01,2013-02-22 01:21:00,
2013-02-21 19:25:00,30.6,29.3,29.74,ENE,76,0.0,4.0,95,0.00,,BKN110,0.05,0.00,VWS V14.01,2013-02-22 01:25:00,
2013-02-21 19:27:00,30.4,29.1,29.74,ENE,76,5.0,8.0,95,0.00,,OVC008,0.05,0.00,VWS V14.01,2013-02-22 01:27:00,
2013-02-21 19:30:00,30.6,29.3,29.74,ENE,76,0.0,4.0,95,0.00,,BKN110,0.05,0.00,VWS V14.01,2013-02-22 01:30:00,
2013-02-21 19:32:00,30.4,29.1,29.74,ENE,76,0.0,5.0,95,0.00,,OVC008,0.05,0.00,VWS V14.01,2013-02-22 01:32:00,
2013-02-21 19:35:00,30.6,29.3,29.74,ENE,76,0.0,2.0,95,0.00,,BKN110,0.05,0.00,VWS V14.01,2013-02-22 01:35:00,
2013-02-21 19:37:00,30.5,29.2,29.74,ENE,76,0.0,3.0,95,0.00,,OVC008,0.05,0.00,VWS V14.01,2013-02-22 01:37:00,
2013-02-21 19:40:00,30.6,29.3,29.74,ENE,76,0.0,3.0,95,0.00,,BKN110,0.05,0.00,VWS V14.01,2013-02-22 01:40:00,
2013-02-21 19:42:00,30.5,29.2,29.74,ENE,76,0.0,2.0,95,0.00,,OVC008,0.05,0.00,VWS V14.01,2013-02-22 01:42:00,
2013-02-21 19:45:00,30.6,29.3,29.74,ENE,76,0.0,4.0,95,0.00,,BKN110,0.05,0.00,VWS V14.01,2013-02-22 01:45:00,
2013-02-21 19:47:00,30.5,29.2,29.75,ENE,76,0.0,0.0,95,0.00,,OVC008,0.05,0.00,VWS V14.01,2013-02-22 01:47:00,
2013-02-21 19:50:00,30.6,29.3,29.74,ENE,76,0.0,2.0,95,0.00,,BKN110,0.05,0.00,VWS V14.01,2013-02-22 01:50:00,
2013-02-21 19:52:00,30.5,29.2,29.75,ENE,76,0.0,1.0,95,0.00,,OVC008,0.05,0.00,VWS V14.01,2013-02-22 01:52:00,
2013-02-21 19:55:00,30.7,29.4,29.74,ENE,76,0.0,1.0,95,0.00,,BKN110,0.05,0.00,VWS V14.01,2013-02-22 01:55:00,
2013-02-21 19:57:00,30.6,29.3,29.75,ENE,76,1.0,1.0,95,0.00,,OVC008,0.05,0.00,VWS V14.01,2013-02-22 01:57:00,
2013-02-21 20:00:00,30.7,29.4,29.74,ENE,76,0.0,3.0,95,0.00,,BKN110,0.05,0.00,VWS V14.01,2013-02-22 02:00:00,
2013-02-21 20:02:00,30.6,29.3,29.74,ENE,76,0.0,3.0,95,0.00,,OVC008,0.05,0.00,VWS V14.01,2013-02-22 02:02:00,
2013-02-21 20:05:00,30.7,29.4,29.74,ENE,76,2.0,7.0,95,0.00,,BKN110,0.05,0.00,VWS V14.01,2013-02-22 02:05:00,
2013-02-21 20:07:00,30.6,29.3,29.74,ENE,76,0.0,3.0,95,0.00,,OVC008,0.05,0.00,VWS V14.01,2013-02-22 02:07:00,
2013-02-21 20:10:00,30.7,29.4,29.74,ENE,76,1.0,3.0,95,0.00,,BKN110,0.05,0.00,VWS V14.01,2013-02-22 02:10:00,
2013-02-21 20:12:00,30.6,29.3,29.74,ENE,76,4.0,4.0,95,0.00,,OVC008,0.05,0.00,VWS V14.01,2013-02-22 02:12:00,
2013-02-21 20:15:00,30.7,29.4,29.75,ENE,76,1.0,3.0,95,0.00,,BKN110,0.05,0.00,VWS V14.01,2013-02-22 02:15:00,
2013-02-21 20:17:00,30.6,29.3,29.74,ENE,76,0.0,0.0,95,0.00,,OVC007,0.05,0.00,VWS V14.01,2013-02-22 02:17:00,
2013-02-21 20:20:00,30.7,29.4,29.75,ENE,76,2.0,5.0,95,0.00,,BKN110,0.05,0.00,VWS V14.01,2013-02-22 02:20:00,
2013-02-21 20:22:00,30.6,29.3,29.74,ENE,76,0.0,0.0,95,0.00,,OVC007,0.05,0.00,VWS V14.01,2013-02-22 02:22:00,
2013-02-21 20:25:00,30.7,29.4,29.75,ENE,76,0.0,3.0,95,0.00,,BKN110,0.05,0.00,VWS V14.01,2013-02-22 02:25:00,
2013-02-21 20:27:00,30.6,29.3,29.74,ENE,76,0.0,1.0,95,0.00,,OVC007,0.05,0.00,VWS V14.01,2013-02-22 02:27:00,
2013-02-21 20:30:00,30.7,29.4,29.75,ENE,76,1.0,3.0,95,0.00,,BKN110,0.05,0.00,VWS V14.01,2013-02-22 02:30:00,
2013-02-21 20:32:00,30.6,29.3,29.74,ENE,76,0.0,0.0,95,0.00,,OVC007,0.05,0.00,VWS V14.01,2013-02-22 02:32:00,
2013-02-21 20:35:00,30.7,29.4,29.75,ENE,76,0.0,1.0,95,0.00,,BKN110,0.05,0.00,VWS V14.01,2013-02-22 02:35:00,
2013-02-21 20:37:00,30.6,29.3,29.74,ENE,76,0.0,0.0,95,0.00,,OVC007,0.05,0.00,VWS V14.01,2013-02-22 02:37:00,
2013-02-21 20:40:00,30.8,29.8,29.75,ENE,76,0.0,1.0,96,0.00,,BKN110,0.05,0.00,VWS V14.01,2013-02-22 02:40:00,
2013-02-21 20:42:00,30.6,29.3,29.74,ENE,76,2.0,3.0,95,0.00,,OVC007,0.05,0.00,VWS V14.01,2013-02-22 02:42:00,
2013-02-21 20:45:00,30.7,29.7,29.75,ENE,76,0.0,2.0,96,0.00,,BKN110,0.05,0.00,VWS V14.01,2013-02-22 02:45:00,
2013-02-21 20:47:00,30.6,29.3,29.74,ENE,76,0.0,0.0,95,0.00,,OVC007,0.05,0.00,VWS V14.01,2013-02-22 02:47:00,
2013-02-21 20:50:00,30.8,29.8,29.75,ENE,76,0.0,1.0,96,0.00,,BKN110,0.05,0.00,VWS V14.01,2013-02-22 02:50:00,
2013-02-21 20:52:00,30.6,29.3,29.74,ENE,76,0.0,0.0,95,0.00,,OVC007,0.05,0.00,VWS V14.01,2013-02-22 02:52:00,
2013-02-21 20:55:00,30.8,29.8,29.75,ENE,76,0.0,2.0,96,0.00,,BKN110,0.05,0.00,VWS V14.01,2013-02-22 02:55:00,
2013-02-21 20:57:00,30.6,29.3,29.74,ENE,76,0.0,2.0,95,0.00,,OVC007,0.05,0.00,VWS V14.01,2013-02-22 02:57:00,
2013-02-21 21:00:00,30.8,29.8,29.76,ENE,76,0.0,1.0,96,0.00,,BKN110,0.05,0.00,VWS V14.01,2013-02-22 03:00:00,
2013-02-21 21:02:00,30.6,29.3,29.74,ENE,76,0.0,2.0,95,0.00,,OVC007,0.05,0.00,VWS V14.01,2013-02-22 03:02:00,
2013-02-21 21:05:00,30.9,29.9,29.76,ENE,76,1.0,3.0,96,0.00,,BKN110,0.05,0.00,VWS V14.01,2013-02-22 03:05:00,
2013-02-21 21:07:00,30.7,29.4,29.74,ENE,76,0.0,2.0,95,0.00,,OVC007,0.05,0.00,VWS V14.01,2013-02-22 03:07:00,
2013-02-21 21:10:00,30.9,29.9,29.76,ENE,76,0.0,1.0,96,0.00,,BKN110,0.05,0.00,VWS V14.01,2013-02-22 03:10:00,
2013-02-21 21:12:00,30.7,29.4,29.74,ENE,76,0.0,1.0,95,0.00,,OVC007,0.05,0.00,VWS V14.01,2013-02-22 03:12:00,
2013-02-21 21:15:00,30.9,29.9,29.76,ENE,76,0.0,2.0,96,0.00,,BKN110,0.05,0.00,VWS V14.01,2013-02-22 03:15:00,
2013-02-21 21:17:00,30.7,29.4,29.75,ENE,76,0.0,2.0,95,0.00,,,0.05,0.00,VWS V14.01,2013-02-22 03:17:00,
2013-02-21 21:20:00,30.9,29.9,29.76,ENE,76,1.0,2.0,96,0.00,,BKN110,0.05,0.00,VWS V14.01,2013-02-22 03:20:00,
2013-02-21 21:22:00,30.7,29.4,29.75,ENE,76,2.0,2.0,95,0.00,,,0.05,0.00,VWS V14.01,2013-02-22 03:22:00,
2013-02-21 21:25:00,30.9,29.9,29.76,ENE,76,0.0,2.0,96,0.00,,BKN110,0.05,0.00,VWS V14.01,2013-02-22 03:25:00,
2013-02-21 21:27:00,30.7,29.4,29.75,ENE,76,0.0,1.0,95,0.00,,,0.05,0.00,VWS V14.01,2013-02-22 03:27:00,
2013-02-21 21:30:00,30.9,29.9,29.77,ENE,76,0.0,0.0,96,0.00,,BKN110,0.05,0.00,VWS V14.01,2013-02-22 03:30:00,
2013-02-21 21:32:00,30.7,29.4,29.75,ENE,76,0.0,1.0,95,0.00,,,0.05,0.00,VWS V14.01,2013-02-22 03:32:00,
2013-02-21 21:35:00,31.0,30.0,29.77,ENE,76,0.0,2.0,96,0.00,,BKN110,0.05,0.00,VWS V14.01,2013-02-22 03:35:00,
2013-02-21 21:37:00,30.7,29.7,29.75,ENE,76,0.0,0.0,96,0.00,,,0.05,0.00,VWS V14.01,2013-02-22 03:37:00,
2013-02-21 21:40:00,31.0,30.0,29.77,ENE,76,0.0,3.0,96,0.00,,BKN110,0.05,0.00,VWS V14.01,2013-02-22 03:40:00,
2013-02-21 21:42:00,30.8,29.8,29.75,ENE,76,0.0,0.0,96,0.00,,,0.05,0.00,VWS V14.01,2013-02-22 03:42:00,
2013-02-21 21:45:00,31.0,30.0,29.77,ENE,76,0.0,2.0,96,0.00,,BKN110,0.05,0.00,VWS V14.01,2013-02-22 03:45:00,
2013-02-21 21:47:00,30.8,29.8,29.75,ENE,76,0.0,1.0,96,0.00,,,0.05,0.00,VWS V14.01,2013-02-22 03:47:00,
2013-02-21 21:50:00,31.0,30.0,29.77,ENE,76,0.0,3.0,96,0.00,,BKN110,0.05,0.00,VWS V14.01,2013-02-22 03:50:00,
2013-02-21 21:52:00,30.8,29.8,29.75,ENE,76,0.0,0.0,96,0.00,,,0.05,0.00,VWS V14.01,2013-02-22 03:52:00,
2013-02-21 21:55:00,31.0,30.0,29.77,ENE,76,3.0,3.0,96,0.00,,BKN110,0.05,0.00,VWS V14.01,2013-02-22 03:55:00,
2013-02-21 21:57:00,30.8,29.8,29.75,ENE,76,1.0,1.0,96,0.00,,,0.05,0.00,VWS V14.01,2013-02-22 03:57:00,
2013-02-21 22:00:00,31.0,30.0,29.77,ENE,76,0.0,3.0,96,0.00,,BKN110,0.05,0.00,VWS V14.01,2013-02-22 04:00:00,
2013-02-21 22:03:00,30.9,29.9,29.76,ENE,76,0.0,2.0,96,0.00,,OVC005,0.05,0.00,VWS V14.01,2013-02-22 04:03:00,
2013-02-21 22:05:00,31.0,30.0,29.77,ENE,76,2.0,3.0,96,0.00,,BKN110,0.05,0.00,VWS V14.01,2013-02-22 04:05:00,
2013-02-21 22:08:00,30.9,29.9,29.76,ENE,76,0.0,1.0,96,0.00,,OVC005,0.05,0.00,VWS V14.01,2013-02-22 04:08:00,
2013-02-21 22:10:00,31.0,30.0,29.77,ENE,76,0.0,4.0,96,0.00,,BKN110,0.05,0.00,VWS V14.01,2013-02-22 04:10:00,
2013-02-21 22:13:00,30.9,29.9,29.76,ENE,76,0.0,1.0,96,0.00,,OVC005,0.05,0.00,VWS V14.01,2013-02-22 04:13:00,
2013-02-21 22:15:00,31.1,30.1,29.78,ENE,76,0.0,2.0,96,0.00,,BKN110,0.05,0.00,VWS V14.01,2013-02-22 04:15:00,
2013-02-21 22:18:00,30.9,29.9,29.76,ENE,76,0.0,0.0,96,0.00,,OVC005,0.05,0.00,VWS V14.01,2013-02-22 04:18:00,
2013-02-21 22:20:00,31.1,30.1,29.78,ENE,76,0.0,2.0,96,0.00,,BKN110,0.05,0.00,VWS V14.01,2013-02-22 04:20:00,
2013-02-21 22:23:00,31.0,30.0,29.76,ENE,76,0.0,2.0,96,0.00,,OVC005,0.05,0.00,VWS V14.01,2013-02-22 04:23:00,
2013-02-21 22:25:00,31.2,30.2,29.78,ENE,76,2.0,5.0,96,0.00,,BKN110,0.05,0.00,VWS V14.01,2013-02-22 04:25:00,
2013-02-21 22:28:00,30.9,29.9,29.76,ENE,76,0.0,0.0,96,0.00,,OVC005,0.05,0.00,VWS V14.01,2013-02-22 04:28:00,
2013-02-21 22:30:00,31.2,30.2,29.78,ENE,76,0.0,3.0,96,0.00,,BKN110,0.05,0.00,VWS V14.01,2013-02-22 04:30:00,
2013-02-21 22:33:00,31.0,30.0,29.77,ENE,76,0.0,2.0,96,0.00,,OVC010,0.05,0.00,VWS V14.01,2013-02-22 04:33:00,
2013-02-21 22:35:00,31.4,30.4,29.78,ENE,76,0.0,2.0,96,0.00,,BKN110,0.05,0.00,VWS V14.01,2013-02-22 04:35:00,
2013-02-21 22:38:00,31.0,30.0,29.77,ENE,76,0.0,2.0,96,0.00,,OVC010,0.05,0.00,VWS V14.01,2013-02-22 04:38:00,
2013-02-21 22:40:00,31.5,30.5,29.78,ENE,76,0.0,3.0,96,0.00,,BKN110,0.05,0.00,VWS V14.01,2013-02-22 04:40:00,
2013-02-21 22:43:00,31.0,30.0,29.77,ENE,76,0.0,2.0,96,0.00,,OVC010,0.05,0.00,VWS V14.01,2013-02-22 04:43:00,
2013-02-21 22:45:00,31.6,30.6,29.77,ENE,76,0.0,3.0,96,0.00,,BKN110,0.05,0.00,VWS V14.01,2013-02-22 04:45:00,
2013-02-21 22:48:00,31.0,30.0,29.77,ENE,76,0.0,3.0,96,0.00,,OVC010,0.05,0.00,VWS V14.01,2013-02-22 04:48:00,
2013-02-21 22:50:00,31.7,30.7,29.77,ENE,76,0.0,2.0,96,0.00,,BKN110,0.05,0.00,VWS V14.01,2013-02-22 04:50:00,
2013-02-21 22:53:00,31.0,30.0,29.77,ENE,76,0.0,0.0,96,0.00,,OVC010,0.05,0.00,VWS V14.01,2013-02-22 04:53:00,
2013-02-21 22:55:00,31.8,30.8,29.77,ENE,76,0.0,3.0,96,0.00,,BKN110,0.05,0.00,VWS V14.01,2013-02-22 04:55:00,
2013-02-21 22:58:00,31.0,30.0,29.77,ENE,76,0.0,3.0,96,0.00,,OVC010,0.05,0.00,VWS V14.01,2013-02-22 04:58:00,
2013-02-21 23:00:00,31.0,30.0,29.77,ENE,76,0.0,3.0,96,0.00,,OVC010,0.05,0.00,VWS V14.01,2013-02-22 05:00:00,
2013-02-21 23:01:00,31.0,30.0,29.77,ENE,76,0.0,3.0,96,0.00,,OVC010,0.05,0.00,VWS V14.01,2013-02-22 05:01:00,
2013-02-21 23:05:00,31.0,30.0,29.77,ENE,76,2.0,3.0,96,0.00,,OVC010,0.05,0.00,VWS V14.01,2013-02-22 05:05:00,
2013-02-21 23:10:00,32.1,31.1,29.78,ENE,76,1.0,9.0,96,0.00,,BKN110,0.00,0.00,VWS V14.01,2013-02-22 05:10:00,
2013-02-21 23:11:00,31.0,30.0,29.77,ENE,76,0.0,4.0,96,0.00,,OVC010,0.05,0.00,VWS V14.01,2013-02-22 05:11:00,
2013-02-21 23:15:00,32.3,31.3,29.78,ENE,76,3.0,11.0,96,0.00,,BKN110,0.00,0.00,VWS V14.01,2013-02-22 05:15:00,
2013-02-21 23:16:00,31.1,30.1,29.78,ENE,76,0.0,2.0,96,0.00,,OVC007,0.05,0.00,VWS V14.01,2013-02-22 05:16:00,
2013-02-21 23:20:00,32.4,31.4,29.78,ENE,76,1.0,10.0,96,0.00,,BKN110,0.00,0.00,VWS V14.01,2013-02-22 05:20:00,
2013-02-21 23:21:00,31.1,30.1,29.78,ENE,76,0.0,2.0,96,0.00,,OVC007,0.05,0.00,VWS V14.01,2013-02-22 05:21:00,
2013-02-21 23:25:00,32.4,31.4,29.78,ENE,76,2.0,8.0,96,0.00,,BKN110,0.00,0.00,VWS V14.01,2013-02-22 05:25:00,
2013-02-21 23:26:00,31.2,30.2,29.78,ENE,76,2.0,5.0,96,0.00,,OVC007,0.05,0.00,VWS V14.01,2013-02-22 05:26:00,
2013-02-21 23:30:00,32.4,31.4,29.78,ENE,76,4.0,7.0,96,0.00,,BKN110,0.00,0.00,VWS V14.01,2013-02-22 05:30:00,
2013-02-21 23:31:00,31.2,30.2,29.78,ENE,76,0.0,3.0,96,0.00,,OVC007,0.05,0.00,VWS V14.01,2013-02-22 05:31:00,
2013-02-21 23:35:00,32.4,31.4,29.78,ENE,76,5.0,9.0,96,0.00,,BKN110,0.00,0.00,VWS V14.01,2013-02-22 05:35:00,
2013-02-21 23:36:00,31.4,30.4,29.78,ENE,76,0.0,0.0,96,0.00,,OVC007,0.05,0.00,VWS V14.01,2013-02-22 05:36:00,
2013-02-21 23:40:00,32.5,31.5,29.78,WSW,242,6.0,9.0,96,0.00,,BKN110,0.00,0.00,VWS V14.01,2013-02-22 05:40:00,
2013-02-21 23:41:00,31.5,30.5,29.78,ENE,76,0.0,0.0,96,0.00,,OVC007,0.05,0.00,VWS V14.01,2013-02-22 05:41:00,
2013-02-21 23:45:00,32.5,31.5,29.79,South,174,11.0,15.0,96,0.00,,BKN110,0.00,0.00,VWS V14.01,2013-02-22 05:45:00,
2013-02-21 23:46:00,31.6,30.6,29.77,ENE,76,0.0,0.0,96,0.00,,OVC007,0.05,0.00,VWS V14.01,2013-02-22 05:46:00,
2013-02-21 23:50:00,32.6,31.6,29.79,NW,310,2.0,9.0,96,0.00,,BKN110,0.00,0.00,VWS V14.01,2013-02-22 05:50:00,
2013-02-21 23:51:00,31.7,30.7,29.77,ENE,76,0.0,0.0,96,0.00,,OVC007,0.05,0.00,VWS V14.01,2013-02-22 05:51:00,
2013-02-21 23:55:00,32.6,31.6,29.79,SW,236,6.0,9.0,96,0.00,,BKN110,0.00,0.00,VWS V14.01,2013-02-22 05:55:00,
2013-02-21 23:56:00,31.8,30.8,29.77,ENE,76,2.0,3.0,96,0.00,,OVC007,0.05,0.00,VWS V14.01,2013-02-22 05:56:00,